Fry, Arizona
Current Conditions -  °F | °C
As of 12:55 PM on Thursday 20 Nov 2014 (Local Time) from KFHU Reporting Station
Few Clouds Few Clouds  
Wind Chill: 68°   Ceiling: Unl
Heat Index: 68°   Visibility: 10mi
Dew Point:   Wind: 10mph
Humidity: 8%   Direction: 280°W
Pressure: 30.08"   Gusts: NA
Location:  31.5289°N, 110.258°W
Report Text: KFHU 201955Z 28009KT 10SM FEW240 20/M16 A3008 RMK SLP152
Loading
Personal Weather Stations






























Interactive Weather Map New forecast layout! Learn more

10-Day Weather Forecast

Advertisements
Track Severe Weather on mobile